Time;durP1;ratioP1;P1;durP2;ratioP2;P2;SDS_P1;SDS_P2;PMS_P1;PMS_P2;Temp;Humidity;BMP_temperature;BMP_pressure;BME280_temperature;BME280_humidity;BME280_pressure;Samples;Min_cycle;Max_cycle;Signal;HPM_P1;HPM_P2
2022/01/24 00:01:49;;;;;;;7.43;5.43;;;5.50;99.90;;;;;;5059052;28;20070;-70
2022/01/24 00:04:15;;;;;;;8.50;5.55;;;5.40;99.90;;;;;;5057527;28;20396;-71
2022/01/24 00:06:41;;;;;;;8.48;5.93;;;5.50;99.90;;;;;;5057785;28;20052;-71
2022/01/24 00:09:09;;;;;;;9.40;6.57;;;5.40;99.90;;;;;;5075377;28;20374;-70
2022/01/24 00:27:21;;;;;;;7.20;5.95;;;5.40;99.90;;;;;;5075276;28;20449;-71
2022/01/24 00:29:46;;;;;;;8.52;5.38;;;5.40;99.90;;;;;;5074803;28;20047;-71
2022/01/24 00:32:12;;;;;;;8.93;5.65;;;5.40;99.90;;;;;;5074723;28;20040;-70
2022/01/24 00:34:38;;;;;;;7.57;5.07;;;5.40;99.90;;;;;;5072875;28;20322;-70
2022/01/24 00:37:04;;;;;;;7.00;4.95;;;5.30;99.90;;;;;;5057871;28;20063;-70
2022/01/24 00:39:30;;;;;;;7.30;5.72;;;5.30;99.90;;;;;;5058485;28;20047;-71
2022/01/24 00:42:19;;;;;;;8.18;5.53;;;5.30;99.90;;;;;;5058009;28;20126;-70
2022/01/24 00:47:23;;;;;;;7.55;5.18;;;5.30;99.90;;;;;;5074514;28;20047;-70
2022/01/24 00:55:18;;;;;;;6.57;4.85;;;5.30;99.90;;;;;;5074393;28;20040;-70
2022/01/24 00:57:43;;;;;;;7.72;5.38;;;5.30;99.90;;;;;;5074430;28;20044;-70
2022/01/24 01:00:10;;;;;;;7.95;5.90;;;5.30;99.90;;;;;;5074542;28;20039;-70
2022/01/24 01:02:36;;;;;;;8.50;5.63;;;5.30;99.90;;;;;;5074622;28;20036;-70
2022/01/24 01:18:35;;;;;;;8.32;5.10;;;5.30;99.90;;;;;;5074364;28;20446;-70
2022/01/24 01:23:29;;;;;;;7.03;5.22;;;5.30;99.90;;;;;;5073913;28;20052;-70
2022/01/24 01:25:56;;;;;;;8.25;5.88;;;5.30;99.90;;;;;;5057209;28;20104;-70
2022/01/24 01:28:23;;;;;;;8.50;6.03;;;5.30;99.90;;;;;;5074150;28;20108;-70
2022/01/24 01:30:53;;;;;;;9.82;6.88;;;5.30;99.90;;;;;;5074478;28;20388;-70
2022/01/24 01:39:29;;;;;;;8.95;6.47;;;5.30;99.90;;;;;;4993254;28;20108;-70
2022/01/24 01:53:15;;;;;;;13.45;7.35;;;5.30;99.90;;;;;;5053563;28;20045;-70
2022/01/24 01:55:41;;;;;;;10.18;6.65;;;5.30;99.90;;;;;;5053462;28;20041;-71
2022/01/24 01:58:12;;;;;;;12.30;8.07;;;5.20;99.90;;;;;;5053909;28;20048;-70
2022/01/24 02:00:45;;;;;;;15.10;8.63;;;5.20;99.90;;;;;;5053763;28;20211;-70
2022/01/24 02:03:12;;;;;;;11.88;8.30;;;5.20;99.90;;;;;;5053866;28;20036;-70
2022/01/24 02:05:38;;;;;;;11.25;7.53;;;5.20;99.90;;;;;;5051191;28;20045;-70
2022/01/24 02:08:05;;;;;;;11.57;8.32;;;5.20;99.90;;;;;;5037081;28;20091;-70
2022/01/24 02:10:34;;;;;;;13.50;8.45;;;5.20;99.90;;;;;;5037113;28;20279;-70
2022/01/24 02:12:59;;;;;;;12.50;8.25;;;5.20;99.90;;;;;;5053759;28;20127;-70
2022/01/24 02:15:37;;;;;;;14.38;9.27;;;5.20;99.90;;;;;;5053495;28;20183;-70
2022/01/24 02:18:15;;;;;;;12.98;8.40;;;5.20;99.90;;;;;;5036958;28;20442;-70
2022/01/24 02:21:11;;;;;;;17.02;9.32;;;5.20;99.90;;;;;;5037082;28;20442;-70
2022/01/24 02:23:41;;;;;;;14.07;9.20;;;5.20;99.90;;;;;;5052858;28;20067;-70
2022/01/24 02:26:11;;;;;;;13.23;8.85;;;5.20;99.90;;;;;;5036975;28;20048;-70
2022/01/24 02:31:38;;;;;;;13.38;8.63;;;5.20;99.90;;;;;;5053556;28;20105;-70
2022/01/24 02:34:18;;;;;;;13.90;8.60;;;5.20;99.90;;;;;;5053582;28;20032;-70
2022/01/24 02:36:44;;;;;;;12.80;8.43;;;5.20;99.90;;;;;;5055229;28;20123;-70
2022/01/24 02:50:14;;;;;;;15.00;8.32;;;5.20;99.90;;;;;;5073204;28;20044;-70
2022/01/24 02:52:40;;;;;;;11.27;7.75;;;5.20;99.90;;;;;;5073189;28;20040;-70
2022/01/24 02:55:06;;;;;;;12.02;8.27;;;5.20;99.90;;;;;;5056794;28;20085;-70
2022/01/24 02:57:32;;;;;;;13.75;7.85;;;5.20;99.90;;;;;;5076221;28;20036;-70
2022/01/24 02:59:58;;;;;;;13.63;8.65;;;5.20;99.90;;;;;;5059927;28;20051;-70
2022/01/24 03:02:24;;;;;;;12.77;8.20;;;5.20;99.90;;;;;;5076467;28;20048;-70
2022/01/24 03:04:49;;;;;;;11.70;6.95;;;5.20;99.90;;;;;;5057556;28;20040;-70
2022/01/24 03:07:15;;;;;;;12.15;8.27;;;5.20;99.90;;;;;;5059830;28;20055;-70
2022/01/24 03:09:43;;;;;;;13.95;8.13;;;5.10;99.90;;;;;;5076519;28;20325;-70
2022/01/24 03:12:13;;;;;;;12.13;8.00;;;5.10;99.90;;;;;;5076724;28;20452;-70
2022/01/24 03:14:39;;;;;;;11.15;8.48;;;5.10;99.90;;;;;;5076636;28;20396;-70
2022/01/24 03:17:06;;;;;;;12.25;8.13;;;5.10;99.90;;;;;;5059602;28;20047;-70
2022/01/24 03:19:32;;;;;;;13.07;8.02;;;5.10;99.90;;;;;;5076278;28;20048;-70
2022/01/24 03:21:58;;;;;;;12.95;7.90;;;5.10;99.90;;;;;;5059398;28;20579;-70
2022/01/24 03:24:24;;;;;;;10.82;6.93;;;5.10;99.90;;;;;;5076579;28;20044;-70
2022/01/24 03:26:50;;;;;;;13.48;8.20;;;5.10;99.90;;;;;;5059365;28;20581;-70
2022/01/24 03:29:16;;;;;;;11.50;7.55;;;5.10;99.90;;;;;;5076050;28;20123;-70
2022/01/24 03:31:45;;;;;;;13.70;8.18;;;5.10;99.90;;;;;;5076100;28;20032;-70
2022/01/24 03:34:11;;;;;;;11.38;7.68;;;5.10;99.90;;;;;;5059670;28;20394;-70
2022/01/24 03:36:36;;;;;;;13.63;8.23;;;5.10;99.90;;;;;;5073879;28;20040;-70
2022/01/24 03:39:03;;;;;;;11.50;7.10;;;5.10;99.90;;;;;;5075955;28;20426;-70
2022/01/24 03:41:29;;;;;;;13.77;7.82;;;5.10;99.90;;;;;;5076217;28;20435;-70
2022/01/24 03:44:01;;;;;;;11.18;7.75;;;5.10;99.90;;;;;;5076022;28;20047;-70
2022/01/24 03:46:59;;;;;;;11.75;8.07;;;5.10;99.90;;;;;;5075712;28;20078;-70
2022/01/24 03:49:46;;;;;;;11.80;7.50;;;5.10;99.90;;;;;;5059133;28;20036;-70
2022/01/24 03:52:17;;;;;;;11.18;7.72;;;5.10;99.90;;;;;;5075614;28;20040;-70
2022/01/24 03:54:43;;;;;;;11.95;7.13;;;5.10;99.90;;;;;;5059025;28;20035;-70
2022/01/24 03:57:12;;;;;;;11.60;6.63;;;5.10;99.90;;;;;;5075525;28;20051;-70
2022/01/24 03:59:37;;;;;;;11.82;6.85;;;5.10;99.90;;;;;;5058922;28;20105;-71
2022/01/24 04:02:04;;;;;;;12.93;7.82;;;5.10;99.90;;;;;;5059013;28;20032;-70
2022/01/24 04:04:30;;;;;;;11.77;7.22;;;5.10;99.90;;;;;;5073228;28;20503;-70
2022/01/24 04:06:55;;;;;;;11.40;6.80;;;5.10;99.90;;;;;;5058505;28;20039;-70
2022/01/24 04:09:21;;;;;;;11.18;7.40;;;5.10;99.90;;;;;;5058756;28;20514;-70
2022/01/24 04:11:52;;;;;;;13.25;7.78;;;5.10;99.90;;;;;;5075297;28;20377;-70
2022/01/24 04:22:20;;;;;;;11.57;6.93;;;5.10;99.90;;;;;;5074982;28;20500;-70
2022/01/24 04:24:47;;;;;;;11.15;7.07;;;5.10;99.90;;;;;;5075281;28;20048;-70
2022/01/24 04:27:14;;;;;;;10.07;7.30;;;5.10;99.90;;;;;;5075014;28;20048;-70
2022/01/24 04:29:41;;;;;;;13.15;7.45;;;5.10;99.90;;;;;;5058346;28;20086;-70
2022/01/24 04:32:08;;;;;;;11.43;8.18;;;5.10;99.90;;;;;;5074878;28;20155;-70
2022/01/24 04:34:34;;;;;;;11.45;8.07;;;5.10;99.90;;;;;;5072340;28;20036;-70
2022/01/24 04:37:01;;;;;;;9.90;6.75;;;5.10;99.90;;;;;;5074832;28;20095;-70
2022/01/24 04:39:28;;;;;;;12.95;8.13;;;5.10;99.90;;;;;;5058316;28;20109;-70
2022/01/24 04:41:56;;;;;;;11.93;8.02;;;5.10;99.90;;;;;;5074756;28;20047;-70
2022/01/24 04:47:20;;;;;;;12.48;8.25;;;5.10;99.90;;;;;;5074523;28;20039;-70
2022/01/24 04:54:56;;;;;;;11.48;8.00;;;5.00;99.90;;;;;;5074389;28;20052;-70
2022/01/24 04:57:25;;;;;;;13.10;8.45;;;5.10;99.90;;;;;;5058166;28;20075;-70
2022/01/24 04:59:53;;;;;;;12.20;8.93;;;5.00;99.90;;;;;;5074555;28;20040;-70
2022/01/24 05:02:21;;;;;;;16.55;9.55;;;5.00;99.90;;;;;;5057701;28;20484;-70
2022/01/24 05:04:47;;;;;;;13.73;8.88;;;5.00;99.90;;;;;;5055173;28;20040;-70
2022/01/24 05:07:13;;;;;;;12.55;8.35;;;5.10;99.90;;;;;;5057613;28;20127;-70
2022/01/24 05:12:25;;;;;;;12.63;8.57;;;5.00;99.90;;;;;;5074547;28;20105;-70
2022/01/24 05:25:48;;;;;;;12.90;9.20;;;5.00;99.90;;;;;;5074030;28;20047;-70
2022/01/24 05:28:15;;;;;;;13.93;9.55;;;5.00;99.90;;;;;;5057349;28;20036;-70
2022/01/24 05:30:40;;;;;;;13.65;9.40;;;5.00;99.90;;;;;;5057597;28;20386;-70
2022/01/24 05:33:06;;;;;;;14.10;10.40;;;5.00;99.90;;;;;;5073889;28;20519;-70
2022/01/24 05:35:32;;;;;;;15.77;10.75;;;5.00;99.90;;;;;;5071494;28;20043;-70
2022/01/24 05:37:58;;;;;;;15.45;10.75;;;5.00;99.90;;;;;;5057201;28;20036;-70
2022/01/24 05:40:25;;;;;;;15.63;11.15;;;5.00;99.90;;;;;;5074053;28;20089;-70
2022/01/24 05:42:51;;;;;;;14.98;10.40;;;5.00;99.90;;;;;;5057371;28;20036;-70
2022/01/24 05:45:17;;;;;;;16.08;10.68;;;5.00;99.90;;;;;;5073748;28;20427;-70
2022/01/24 05:47:43;;;;;;;15.02;9.73;;;5.00;99.90;;;;;;5073821;28;20036;-70
2022/01/24 05:50:09;;;;;;;15.45;10.98;;;5.00;99.90;;;;;;5073758;28;20135;-70
2022/01/24 05:52:35;;;;;;;16.55;11.35;;;5.00;99.90;;;;;;5057399;28;20036;-70
2022/01/24 05:55:02;;;;;;;18.55;12.35;;;5.00;99.90;;;;;;5074023;28;20500;-70
2022/01/24 05:57:28;;;;;;;20.40;13.80;;;5.00;99.90;;;;;;5057065;28;20075;-70
2022/01/24 05:59:54;;;;;;;18.85;12.52;;;5.10;99.90;;;;;;5073944;28;20087;-70
2022/01/24 06:02:20;;;;;;;21.92;13.13;;;5.10;99.90;;;;;;5057010;28;20048;-70
2022/01/24 06:04:46;;;;;;;17.60;11.50;;;5.10;99.90;;;;;;5071107;28;20120;-70
2022/01/24 06:07:12;;;;;;;19.42;12.88;;;5.10;99.90;;;;;;5073973;28;20048;-70
2022/01/24 06:09:38;;;;;;;19.52;13.20;;;5.10;99.90;;;;;;5056861;28;20055;-70
2022/01/24 06:12:05;;;;;;;17.23;11.68;;;5.10;99.90;;;;;;5057147;28;20028;-70
2022/01/24 06:14:31;;;;;;;18.92;12.45;;;5.10;99.90;;;;;;5073554;28;20492;-70
2022/01/24 06:16:57;;;;;;;19.98;11.98;;;5.10;99.90;;;;;;5056820;28;20043;-70
2022/01/24 06:19:23;;;;;;;17.90;12.30;;;5.10;99.90;;;;;;5056975;28;20134;-70
2022/01/24 06:21:49;;;;;;;18.40;10.93;;;5.10;99.90;;;;;;5056617;28;20067;-70
2022/01/24 06:24:15;;;;;;;18.90;11.95;;;5.10;99.90;;;;;;5057018;28;20133;-70
2022/01/24 06:26:43;;;;;;;18.92;12.75;;;5.10;99.90;;;;;;5073655;28;20472;-70
2022/01/24 06:29:12;;;;;;;17.58;11.63;;;5.10;99.90;;;;;;5073286;28;20506;-70
2022/01/24 06:31:38;;;;;;;19.75;12.57;;;5.10;99.90;;;;;;5076960;28;20369;-70
2022/01/24 06:34:05;;;;;;;20.90;11.43;;;5.10;99.90;;;;;;5077419;28;20500;-70
2022/01/24 06:36:31;;;;;;;17.33;12.13;;;5.10;99.90;;;;;;5074963;28;20042;-70
2022/01/24 06:38:59;;;;;;;18.38;11.50;;;5.10;99.90;;;;;;5060403;28;20466;-70
2022/01/24 06:41:29;;;;;;;19.52;12.45;;;5.10;99.90;;;;;;5060373;28;20488;-70
2022/01/24 06:43:55;;;;;;;17.17;11.73;;;5.10;99.90;;;;;;5077160;28;20040;-70
2022/01/24 06:46:21;;;;;;;19.90;13.38;;;5.10;99.90;;;;;;5060748;28;20085;-70
2022/01/24 06:48:47;;;;;;;20.77;12.38;;;5.10;99.90;;;;;;5077050;28;20113;-70
2022/01/24 06:51:13;;;;;;;22.38;13.77;;;5.10;99.90;;;;;;5060211;28;20479;-70
2022/01/24 06:53:40;;;;;;;25.05;15.23;;;5.10;99.90;;;;;;5060397;28;20035;-70
2022/01/24 06:56:07;;;;;;;24.30;14.60;;;5.00;99.90;;;;;;5076980;28;20048;-70
2022/01/24 06:58:34;;;;;;;28.63;16.52;;;5.00;99.90;;;;;;5076769;28;20048;-71
2022/01/24 07:01:00;;;;;;;29.42;17.10;;;5.00;99.90;;;;;;5076599;28;20044;-70
2022/01/24 07:03:27;;;;;;;29.38;18.63;;;5.10;99.90;;;;;;5076644;28;20039;-70
2022/01/24 07:05:53;;;;;;;30.30;18.67;;;5.10;99.90;;;;;;5057462;28;20044;-70
2022/01/24 07:08:19;;;;;;;32.13;19.80;;;5.10;99.90;;;;;;5059658;28;20044;-70
2022/01/24 07:10:45;;;;;;;31.65;17.98;;;5.10;99.90;;;;;;5076632;28;20035;-70
2022/01/24 07:13:11;;;;;;;31.00;17.88;;;5.10;99.90;;;;;;5076728;28;20123;-70
2022/01/24 07:15:46;;;;;;;28.67;16.77;;;5.10;99.90;;;;;;5059790;28;20059;-70
2022/01/24 07:20:37;;;;;;;23.95;16.08;;;5.00;99.90;;;;;;5076487;28;20534;-70
2022/01/24 07:23:03;;;;;;;30.77;18.05;;;5.00;99.90;;;;;;5076021;28;20455;-70
2022/01/24 07:25:29;;;;;;;31.23;18.33;;;5.00;99.90;;;;;;5059633;28;20130;-70
2022/01/24 07:27:55;;;;;;;30.75;19.48;;;5.00;99.90;;;;;;5059599;28;20392;-70
2022/01/24 07:30:21;;;;;;;34.83;18.98;;;5.00;99.90;;;;;;5076302;28;20496;-71
2022/01/24 07:32:47;;;;;;;29.10;17.40;;;5.00;99.90;;;;;;5076389;28;20622;-70
2022/01/24 07:35:13;;;;;;;31.70;19.20;;;5.00;99.90;;;;;;5073524;28;20044;-70
2022/01/24 07:37:39;;;;;;;31.20;18.85;;;4.90;99.90;;;;;;5076047;28;20044;-70
2022/01/24 07:40:07;;;;;;;30.63;17.90;;;5.00;99.90;;;;;;5076080;28;20036;-70
2022/01/24 07:42:53;;;;;;;37.03;19.98;;;5.00;99.90;;;;;;5075039;28;20105;-70
2022/01/24 07:45:21;;;;;;;32.90;19.17;;;5.00;99.90;;;;;;5072475;28;20131;-70
2022/01/24 07:47:47;;;;;;;35.15;18.98;;;4.90;99.90;;;;;;5093517;28;20076;-69
2022/01/24 07:50:18;;;;;;;32.60;18.45;;;4.90;99.90;;;;;;5093179;28;20040;-69
2022/01/24 07:52:43;;;;;;;34.08;19.90;;;4.90;99.90;;;;;;5093711;28;20039;-70
2022/01/24 07:55:10;;;;;;;31.90;18.83;;;4.90;99.90;;;;;;5093121;28;20450;-69
2022/01/24 07:57:36;;;;;;;37.00;20.05;;;4.90;99.90;;;;;;5075705;28;20043;-69
2022/01/24 08:00:03;;;;;;;34.25;19.50;;;4.90;99.90;;;;;;5075728;28;20044;-69
2022/01/24 08:02:29;;;;;;;36.28;19.83;;;4.90;99.90;;;;;;5075550;28;20079;-70
2022/01/24 08:04:55;;;;;;;37.58;19.35;;;4.90;99.90;;;;;;5090197;28;20075;-69
2022/01/24 08:07:21;;;;;;;38.78;19.95;;;4.90;99.90;;;;;;5092545;28;20040;-69
2022/01/24 08:09:46;;;;;;;36.28;22.40;;;5.00;99.90;;;;;;5092250;28;20083;-69
2022/01/24 08:12:12;;;;;;;37.60;21.02;;;5.00;99.90;;;;;;5075311;28;20046;-69
2022/01/24 08:14:38;;;;;;;36.17;20.77;;;4.90;99.90;;;;;;5092287;28;20042;-69
2022/01/24 08:17:04;;;;;;;35.65;20.92;;;5.00;99.90;;;;;;5092000;28;20058;-69
2022/01/24 08:19:32;;;;;;;34.00;19.83;;;5.00;99.90;;;;;;5092088;28;20044;-69
2022/01/24 08:21:58;;;;;;;34.00;20.05;;;5.00;99.90;;;;;;5075147;28;20048;-69
2022/01/24 08:24:24;;;;;;;33.75;19.08;;;5.00;99.90;;;;;;5092255;28;20606;-69
2022/01/24 08:26:50;;;;;;;40.78;21.80;;;5.00;99.90;;;;;;5075215;28;20152;-69
2022/01/24 08:29:16;;;;;;;38.85;21.15;;;5.00;99.90;;;;;;5091833;28;20507;-69
2022/01/24 08:31:42;;;;;;;38.05;21.13;;;5.00;99.90;;;;;;5075153;28;20050;-69
2022/01/24 08:34:08;;;;;;;41.50;22.88;;;5.00;99.90;;;;;;5092843;28;20370;-69
2022/01/24 08:36:34;;;;;;;40.78;22.80;;;5.00;99.90;;;;;;5090426;28;20036;-69
2022/01/24 08:39:07;;;;;;;40.67;21.45;;;5.00;99.90;;;;;;5075952;28;20155;-69
2022/01/24 08:45:41;;;;;;;42.53;22.65;;;5.00;99.90;;;;;;5043177;28;20051;-68
2022/01/24 08:47:17;;;;;;;40.20;21.60;;;5.10;99.90;;;;;;5074783;28;20177;-68
2022/01/24 08:49:42;;;;;;;44.85;23.00;;;5.10;99.90;;;;;;5075480;28;20123;-68
2022/01/24 08:52:10;;;;;;;45.35;24.42;;;5.10;99.90;;;;;;5058625;28;20387;-68
2022/01/24 08:54:36;;;;;;;44.35;24.40;;;5.10;99.90;;;;;;5058911;28;20614;-69
2022/01/24 08:57:02;;;;;;;45.63;23.90;;;5.10;99.90;;;;;;5075250;28;20047;-68
2022/01/24 08:59:30;;;;;;;51.55;26.77;;;5.20;99.90;;;;;;5058630;28;20048;-68
2022/01/24 09:01:56;;;;;;;43.00;23.52;;;5.20;99.90;;;;;;5075126;28;20109;-68
2022/01/24 09:04:22;;;;;;;44.47;24.73;;;5.20;99.90;;;;;;5058110;28;20051;-68
2022/01/24 09:06:48;;;;;;;47.60;24.58;;;5.20;99.90;;;;;;5056813;28;20106;-69
2022/01/24 09:09:15;;;;;;;44.03;24.65;;;5.20;99.90;;;;;;5058327;28;20044;-68
2022/01/24 09:11:41;;;;;;;49.85;26.38;;;5.20;99.90;;;;;;5086003;28;20058;-67
2022/01/24 09:14:07;;;;;;;48.22;24.10;;;5.20;99.90;;;;;;5091612;28;20035;-68
2022/01/24 09:16:35;;;;;;;49.03;26.08;;;5.30;99.90;;;;;;5090227;28;20075;-68
2022/01/24 09:19:01;;;;;;;47.72;26.17;;;5.30;99.90;;;;;;5074429;28;20044;-67
2022/01/24 09:21:29;;;;;;;50.70;27.35;;;5.30;99.90;;;;;;5057180;28;20513;-67
2022/01/24 09:23:55;;;;;;;46.67;25.52;;;5.30;99.90;;;;;;5063554;28;20397;-68
2022/01/24 09:26:21;;;;;;;47.28;25.67;;;5.30;99.90;;;;;;5060119;28;20045;-68
2022/01/24 09:28:47;;;;;;;51.85;27.13;;;5.30;99.90;;;;;;5054827;28;20044;-67
2022/01/24 09:31:14;;;;;;;48.70;26.58;;;5.30;99.90;;;;;;5054496;28;20097;-67
2022/01/24 09:33:45;;;;;;;50.25;27.42;;;5.30;99.90;;;;;;5054807;28;20048;-67
2022/01/24 09:36:13;;;;;;;51.72;27.80;;;5.30;99.90;;;;;;5052815;28;20043;-67
2022/01/24 09:38:38;;;;;;;49.33;27.23;;;5.30;99.90;;;;;;5037959;28;20041;-67
2022/01/24 09:41:07;;;;;;;52.65;29.45;;;5.40;99.90;;;;;;5038381;28;20044;-67
2022/01/24 09:43:33;;;;;;;50.53;27.48;;;5.40;99.90;;;;;;5054793;28;20101;-67
2022/01/24 09:46:00;;;;;;;52.45;29.98;;;5.40;99.90;;;;;;5054751;28;20037;-67
2022/01/24 09:48:26;;;;;;;61.03;32.33;;;5.40;99.90;;;;;;5054764;28;20052;-67
2022/01/24 09:50:53;;;;;;;61.72;32.90;;;5.40;99.90;;;;;;5054918;28;20036;-68
2022/01/24 09:53:22;;;;;;;56.08;31.02;;;5.40;99.90;;;;;;5054424;28;20040;-67
2022/01/24 09:55:49;;;;;;;59.47;32.27;;;5.50;99.90;;;;;;5052507;28;20032;-67
2022/01/24 09:58:15;;;;;;;54.22;29.85;;;5.50;99.90;;;;;;5054799;28;20037;-68
2022/01/24 10:00:41;;;;;;;61.30;30.67;;;5.50;99.90;;;;;;5054618;28;20102;-67
2022/01/24 10:03:08;;;;;;;57.17;30.23;;;5.50;99.90;;;;;;5054666;28;20683;-67
2022/01/24 10:05:39;;;;;;;51.67;30.23;;;5.50;99.90;;;;;;5053915;28;20040;-68
2022/01/24 10:08:14;;;;;;;54.33;28.90;;;5.60;99.90;;;;;;5058457;28;20040;-67
2022/01/24 10:10:48;;;;;;;56.25;30.67;;;5.60;99.90;;;;;;5058637;28;20039;-67
2022/01/24 10:16:30;;;;;;;60.05;32.55;;;5.60;99.90;;;;;;5058283;28;20504;-67
2022/01/24 10:19:12;;;;;;;57.80;30.48;;;5.50;99.90;;;;;;5058261;28;20045;-67
2022/01/24 10:21:41;;;;;;;53.28;30.88;;;5.60;99.90;;;;;;5056667;28;20044;-67
2022/01/24 10:24:07;;;;;;;54.42;31.75;;;5.60;99.90;;;;;;5049490;28;20466;-68
2022/01/24 10:26:33;;;;;;;53.60;30.35;;;5.60;99.90;;;;;;5057967;28;20048;-67
2022/01/24 10:28:59;;;;;;;52.92;29.83;;;5.60;99.90;;;;;;5057751;28;20047;-68
2022/01/24 10:31:29;;;;;;;50.72;29.30;;;5.60;99.90;;;;;;5058125;28;20044;-67
2022/01/24 10:34:04;;;;;;;52.83;30.38;;;5.60;99.90;;;;;;5041421;28;20090;-67
2022/01/24 10:36:37;;;;;;;56.22;31.27;;;5.60;99.90;;;;;;5054772;28;20036;-67
2022/01/24 10:39:33;;;;;;;50.22;29.77;;;5.70;99.90;;;;;;5068304;28;20522;-67
2022/01/24 10:42:35;;;;;;;52.38;30.55;;;5.70;99.90;;;;;;5040626;28;20499;-68
2022/01/24 10:45:09;;;;;;;52.80;30.80;;;5.70;99.90;;;;;;5036985;28;20048;-68
2022/01/24 10:47:43;;;;;;;53.40;32.67;;;5.80;99.90;;;;;;5020461;28;20044;-67
2022/01/24 10:50:10;;;;;;;55.58;31.73;;;5.80;99.90;;;;;;5036869;28;20485;-67
2022/01/24 10:52:36;;;;;;;51.30;29.73;;;5.80;99.90;;;;;;5036876;28;20441;-67
2022/01/24 10:55:18;;;;;;;52.92;31.88;;;5.90;99.90;;;;;;5073300;28;20041;-68
2022/01/24 10:57:48;;;;;;;55.28;31.67;;;5.90;99.90;;;;;;5056620;28;20045;-67
2022/01/24 11:00:20;;;;;;;47.85;28.80;;;5.90;99.90;;;;;;5056876;28;20461;-67
2022/01/24 11:02:50;;;;;;;49.13;29.27;;;5.90;99.90;;;;;;5039725;28;20044;-67
2022/01/24 11:05:17;;;;;;;;;;;5.90;99.90;;;;;;5054814;28;20535;-67
2022/01/24 11:08:05;;;;;;;48.03;27.30;;;5.90;99.90;;;;;;5039816;28;19973;-67
2022/01/24 11:10:33;;;;;;;48.67;29.15;;;5.90;99.90;;;;;;5040383;28;20049;-68
2022/01/24 11:12:59;;;;;;;45.10;27.35;;;5.80;99.90;;;;;;5056787;28;20397;-68
2022/01/24 11:15:26;;;;;;;52.83;29.40;;;5.80;99.90;;;;;;5057297;28;20080;-67
2022/01/24 11:17:53;;;;;;;56.95;32.50;;;5.80;99.90;;;;;;5055933;28;20033;-68
2022/01/24 11:20:21;;;;;;;49.53;30.05;;;5.80;99.90;;;;;;5057179;28;20048;-67
2022/01/24 11:22:57;;;;;;;49.20;30.10;;;5.80;99.90;;;;;;5048980;28;20175;-68
2022/01/24 11:25:24;;;;;;;54.95;31.25;;;5.80;99.90;;;;;;5073799;28;20057;-68
2022/01/24 11:27:50;;;;;;;53.05;31.95;;;5.80;99.90;;;;;;5056952;28;20044;-68
2022/01/24 11:30:21;;;;;;;55.83;32.38;;;5.80;99.90;;;;;;5057058;28;20043;-68
2022/01/24 11:32:56;;;;;;;47.58;29.20;;;5.80;99.90;;;;;;5057065;28;20044;-68
2022/01/24 11:35:38;;;;;;;45.38;27.23;;;5.80;99.90;;;;;;5071359;28;20041;-68
2022/01/24 11:38:24;;;;;;;46.67;28.58;;;5.80;99.90;;;;;;5072998;28;20520;-68
2022/01/24 11:40:54;;;;;;;48.80;29.92;;;5.80;99.90;;;;;;5072500;28;20036;-68
2022/01/24 11:43:45;;;;;;;48.42;28.80;;;5.80;99.90;;;;;;5073647;28;20039;-68
2022/01/24 11:46:35;;;;;;;45.85;28.00;;;5.80;99.90;;;;;;5055792;28;20074;-68
2022/01/24 11:49:10;;;;;;;48.20;28.67;;;5.80;99.90;;;;;;5072283;28;20086;-68
2022/01/24 11:51:39;;;;;;;46.28;28.27;;;5.80;99.90;;;;;;5072382;28;20516;-68
2022/01/24 11:57:25;;;;;;;43.72;26.95;;;5.80;99.90;;;;;;5041483;28;20049;-68
2022/01/24 12:00:05;;;;;;;48.80;28.33;;;5.70;99.90;;;;;;5072423;28;20396;-68
2022/01/24 12:02:45;;;;;;;42.75;25.63;;;5.80;99.90;;;;;;5072387;28;20098;-68
2022/01/24 12:05:24;;;;;;;52.07;30.90;;;5.80;99.90;;;;;;5069965;28;20392;-68
2022/01/24 12:07:52;;;;;;;52.42;29.38;;;5.80;99.90;;;;;;5072053;28;20311;-68
2022/01/24 12:10:34;;;;;;;48.30;28.00;;;5.80;99.90;;;;;;5055147;28;20552;-68
2022/01/24 12:13:03;;;;;;;53.55;32.10;;;5.80;99.90;;;;;;5071798;28;20056;-68
2022/01/24 12:15:41;;;;;;;53.85;31.02;;;5.80;99.90;;;;;;5055392;28;20066;-68
2022/01/24 12:18:26;;;;;;;55.40;33.90;;;5.80;99.90;;;;;;5071803;28;20044;-68
2022/01/24 12:21:16;;;;;;;50.58;30.60;;;5.80;99.90;;;;;;5071834;28;20071;-68
2022/01/24 12:23:43;;;;;;;56.40;34.17;;;5.80;99.90;;;;;;5074798;28;20097;-68
2022/01/24 12:26:12;;;;;;;56.30;33.38;;;5.80;99.90;;;;;;5058392;28;20051;-68
2022/01/24 12:28:46;;;;;;;55.88;35.00;;;5.80;99.90;;;;;;5074414;28;20047;-68
2022/01/24 12:31:33;;;;;;;52.92;30.00;;;5.80;99.90;;;;;;5074944;28;20040;-68
2022/01/24 12:34:04;;;;;;;51.95;32.20;;;5.90;99.90;;;;;;5054910;28;20049;-68
2022/01/24 12:39:12;;;;;;;53.45;32.00;;;5.80;99.90;;;;;;5074637;28;20522;-68
2022/01/24 12:41:43;;;;;;;55.42;31.85;;;5.90;99.90;;;;;;5074832;28;20079;-68
2022/01/24 12:46:16;;;;;;;55.22;30.70;;;5.90;99.90;;;;;;5058310;28;20399;-68
2022/01/24 12:46:55;;;;;;;58.47;33.38;;;5.90;99.90;;;;;;5074890;28;20051;-68
2022/01/24 12:49:21;;;;;;;55.05;32.75;;;5.90;99.90;;;;;;5074674;28;20420;-68
2022/01/24 12:51:49;;;;;;;51.88;31.13;;;5.90;99.90;;;;;;5057858;28;20109;-68
2022/01/24 12:54:16;;;;;;;51.55;30.55;;;5.90;99.90;;;;;;5074433;28;20108;-68
2022/01/24 12:56:42;;;;;;;53.78;33.75;;;5.90;99.90;;;;;;5074499;28;20043;-68
2022/01/24 12:59:09;;;;;;;64.65;37.35;;;5.90;99.90;;;;;;5074667;28;20051;-68
2022/01/24 13:01:37;;;;;;;58.42;32.00;;;5.90;99.90;;;;;;5057770;28;20369;-68
2022/01/24 13:04:12;;;;;;;52.83;32.15;;;5.90;99.90;;;;;;5074263;28;20112;-68
2022/01/24 13:06:40;;;;;;;54.90;32.28;;;6.00;99.90;;;;;;5071949;28;20048;-68
2022/01/24 13:09:15;;;;;;;57.35;34.65;;;6.00;99.90;;;;;;5074240;28;20119;-68
2022/01/24 13:11:55;;;;;;;55.20;32.58;;;6.00;99.90;;;;;;5057886;28;20113;-68
2022/01/24 13:25:11;;;;;;;55.53;32.13;;;5.90;99.90;;;;;;5074092;28;20056;-68
2022/01/24 13:27:45;;;;;;;57.17;33.10;;;5.80;99.90;;;;;;5074389;28;20079;-68
2022/01/24 13:30:26;;;;;;;53.15;32.03;;;5.80;99.90;;;;;;5073730;28;20492;-68
2022/01/24 13:32:57;;;;;;;;;;;5.80;99.90;;;;;;5074452;28;20052;-68
2022/01/24 13:35:30;;;;;;;56.78;32.30;;;5.80;99.90;;;;;;5071576;28;19923;-68
2022/01/24 13:38:02;;;;;;;52.33;32.60;;;5.80;99.90;;;;;;5074097;28;20040;-68
2022/01/24 13:40:37;;;;;;;54.58;32.05;;;5.80;99.90;;;;;;5056325;28;20044;-68
2022/01/24 13:43:04;;;;;;;59.38;33.80;;;5.70;99.90;;;;;;5056989;28;20085;-68
2022/01/24 13:45:39;;;;;;;62.75;31.98;;;5.70;99.90;;;;;;5074027;28;20137;-68
2022/01/24 13:48:15;;;;;;;58.17;34.10;;;5.70;99.90;;;;;;5074149;28;20048;-68
2022/01/24 13:50:49;;;;;;;54.33;32.45;;;5.70;99.90;;;;;;5057407;28;20122;-68
2022/01/24 13:53:32;;;;;;;60.20;33.47;;;5.70;99.90;;;;;;5073750;28;20036;-68
2022/01/24 13:55:58;;;;;;;58.10;33.08;;;5.70;99.90;;;;;;5073296;28;20582;-68
2022/01/24 13:58:25;;;;;;;60.08;33.60;;;5.70;99.90;;;;;;5069538;28;20119;-68
2022/01/24 14:00:59;;;;;;;61.17;34.53;;;5.70;99.90;;;;;;5073762;28;20365;-68
2022/01/24 14:03:26;;;;;;;59.70;34.03;;;5.70;99.90;;;;;;5073962;28;20043;-68
2022/01/24 14:06:37;;;;;;;53.03;31.20;;;5.70;99.90;;;;;;5052123;28;20040;-68
2022/01/24 14:09:06;;;;;;;51.03;30.48;;;5.70;99.90;;;;;;4984448;28;20061;-68
2022/01/24 14:11:32;;;;;;;56.78;32.33;;;5.70;99.90;;;;;;4992930;28;20045;-68
2022/01/24 14:14:04;;;;;;;50.78;31.00;;;5.70;99.90;;;;;;5051538;28;20059;-68
2022/01/24 14:19:35;;;;;;;54.08;31.95;;;5.70;99.90;;;;;;5068354;28;20122;-68
2022/01/24 14:22:03;;;;;;;47.60;26.17;;;5.60;99.90;;;;;;5056719;28;20386;-68
2022/01/24 14:24:47;;;;;;;54.17;30.42;;;5.60;99.90;;;;;;5073209;28;20044;-68
2022/01/24 14:27:14;;;;;;;54.58;31.17;;;5.50;99.90;;;;;;5073653;28;20578;-68
2022/01/24 14:29:40;;;;;;;62.58;34.08;;;5.50;99.90;;;;;;5073278;28;20127;-68
2022/01/24 14:32:11;;;;;;;59.00;32.20;;;5.50;99.90;;;;;;5073523;28;20092;-68
2022/01/24 14:34:38;;;;;;;57.63;32.80;;;5.50;99.90;;;;;;5071017;28;20047;-68
2022/01/24 14:37:05;;;;;;;55.67;32.30;;;5.50;99.90;;;;;;5073045;28;20123;-68
2022/01/24 14:39:32;;;;;;;58.90;32.70;;;5.50;99.90;;;;;;5073545;28;20097;-68
2022/01/24 14:42:07;;;;;;;52.70;31.38;;;5.50;99.90;;;;;;5073462;28;20408;-68
2022/01/24 14:47:18;;;;;;;56.80;30.95;;;5.50;99.90;;;;;;5073012;28;20051;-68
2022/01/24 14:49:43;;;;;;;53.42;30.42;;;5.50;99.90;;;;;;5073186;28;20063;-68
2022/01/24 14:52:17;;;;;;;50.72;30.65;;;5.50;99.90;;;;;;5075583;28;20040;-68
2022/01/24 14:54:43;;;;;;;60.97;33.15;;;5.40;99.90;;;;;;5077037;28;20106;-68
2022/01/24 14:57:12;;;;;;;61.95;32.20;;;5.50;99.90;;;;;;5076860;28;20488;-68
2022/01/24 14:59:42;;;;;;;55.13;31.58;;;5.40;99.90;;;;;;5076692;28;20040;-68
2022/01/24 15:02:08;;;;;;;56.28;32.53;;;5.40;99.90;;;;;;5076414;28;20048;-68
2022/01/24 15:04:35;;;;;;;56.00;31.75;;;5.40;99.90;;;;;;5058549;28;20044;-68